QFA410 YMML-YSSY
Flight info
| Callsign | QFA410 |
|---|---|
| Flight time | 1h 44m |
| Altitude | 35000 |
| Route | ML H129 DOSEL Y59 RIVET |
| Aircraft | B738/M-SDE2E3FGHIRWXY/LB1 |
Departure
| Time | 2026-05-04 09:27 |
|---|---|
| Airport | Melbourne Airport (YMML) |
Arrival
| Time | 2026-05-04 11:12 |
|---|---|
| Airport | Sydney Kingsford Smith International Airport (YSSY) |
| Time | Latitude | Longitude | Altitude | Speed | Heading |
|---|---|---|---|---|---|
| 2026-05-04 08:47 | -37.66651 | 144.84992 | 401 ft | 0 kts | 262° |
| 2026-05-04 09:14 | -37.66655 | 144.85072 | 397 ft | 0 kts | 349° |
| 2026-05-04 09:17 | -37.66652 | 144.84632 | 399 ft | 22 kts | 262° |
| 2026-05-04 09:18 | -37.66671 | 144.84458 | 397 ft | 20 kts | 262° |
| 2026-05-04 09:18 | -37.66691 | 144.84283 | 390 ft | 20 kts | 262° |
| 2026-05-04 09:18 | -37.66710 | 144.84113 | 394 ft | 19 kts | 261° |
| 2026-05-04 09:18 | -37.66773 | 144.83988 | 392 ft | 18 kts | 190° |
| 2026-05-04 09:19 | -37.66905 | 144.84006 | 387 ft | 20 kts | 171° |
| 2026-05-04 09:19 | -37.67042 | 144.84031 | 383 ft | 20 kts | 172° |
| 2026-05-04 09:19 | -37.67184 | 144.84057 | 379 ft | 21 kts | 171° |
| 2026-05-04 09:19 | -37.67264 | 144.84072 | 376 ft | 9 kts | 171° |
| 2026-05-04 09:20 | -37.67327 | 144.84084 | 375 ft | 10 kts | 172° |
| 2026-05-04 09:20 | -37.67406 | 144.84099 | 373 ft | 14 kts | 171° |
| 2026-05-04 09:20 | -37.67447 | 144.84106 | 372 ft | 2 kts | 172° |
| 2026-05-04 09:20 | -37.67466 | 144.84110 | 371 ft | 5 kts | 172° |
| 2026-05-04 09:21 | -37.67534 | 144.84123 | 369 ft | 12 kts | 172° |
| 2026-05-04 09:21 | -37.67625 | 144.84140 | 368 ft | 14 kts | 172° |
| 2026-05-04 09:21 | -37.67704 | 144.84155 | 364 ft | 7 kts | 171° |
| 2026-05-04 09:21 | -37.67758 | 144.84165 | 364 ft | 5 kts | 172° |
| 2026-05-04 09:22 | -37.67773 | 144.84168 | 362 ft | 0 kts | 172° |
| 2026-05-04 09:25 | -37.67876 | 144.84077 | 356 ft | 9 kts | 264° |
| 2026-05-04 09:25 | -37.67877 | 144.83990 | 359 ft | 0 kts | 292° |
| 2026-05-04 09:26 | -37.67866 | 144.83978 | 360 ft | 3 kts | 315° |
| 2026-05-04 09:26 | -37.67836 | 144.83963 | 358 ft | 4 kts | 349° |
| 2026-05-04 09:26 | -37.67835 | 144.83963 | 358 ft | 0 kts | 349° |
| 2026-05-04 09:27 | -37.67823 | 144.83960 | 359 ft | 12 kts | 349° |
| 2026-05-04 09:27 | -37.67549 | 144.83906 | 367 ft | 80 kts | 352° |
| 2026-05-04 09:27 | -37.66719 | 144.83754 | 436 ft | 154 kts | 352° |
| 2026-05-04 09:27 | -37.65595 | 144.83548 | 1400 ft | 167 kts | 351° |
| 2026-05-04 09:28 | -37.64419 | 144.83363 | 2586 ft | 176 kts | 346° |
| 2026-05-04 09:28 | -37.63113 | 144.83121 | 3003 ft | 207 kts | 345° |
| 2026-05-04 09:28 | -37.61617 | 144.82809 | 3523 ft | 222 kts | 344° |
| 2026-05-04 09:28 | -37.59990 | 144.82481 | 3915 ft | 250 kts | 347° |
| 2026-05-04 09:29 | -37.58234 | 144.82455 | 4776 ft | 260 kts | 1° |
| 2026-05-04 09:29 | -37.56454 | 144.83085 | 5707 ft | 275 kts | 17° |
| 2026-05-04 09:29 | -37.54733 | 144.84295 | 6507 ft | 287 kts | 26° |
| 2026-05-04 09:29 | -37.53046 | 144.85615 | 7542 ft | 282 kts | 24° |
| 2026-05-04 09:30 | -37.51343 | 144.86836 | 8521 ft | 283 kts | 23° |
| 2026-05-04 09:30 | -37.49603 | 144.88027 | 9219 ft | 293 kts | 22° |
| 2026-05-04 09:30 | -37.47769 | 144.89212 | 10073 ft | 296 kts | 21° |
| 2026-05-04 09:30 | -37.45934 | 144.90429 | 10904 ft | 299 kts | 22° |
| 2026-05-04 09:31 | -37.44057 | 144.91747 | 11329 ft | 321 kts | 28° |
| 2026-05-04 09:31 | -37.42217 | 144.93465 | 11700 ft | 343 kts | 38° |
| 2026-05-04 09:31 | -37.40567 | 144.95678 | 12496 ft | 352 kts | 49° |
| 2026-05-04 09:31 | -37.39180 | 144.98282 | 13169 ft | 362 kts | 55° |
| 2026-05-04 09:32 | -37.37868 | 145.01030 | 13882 ft | 368 kts | 56° |
| 2026-05-04 09:32 | -37.36536 | 145.03767 | 14611 ft | 371 kts | 54° |
| 2026-05-04 09:34 | -37.25946 | 145.22968 | 19500 ft | 393 kts | 50° |
| 2026-05-04 09:34 | -37.24352 | 145.25771 | 20143 ft | 395 kts | 50° |
| 2026-05-04 09:34 | -37.22765 | 145.28558 | 20748 ft | 398 kts | 50° |
| 2026-05-04 09:34 | -37.21141 | 145.31408 | 21350 ft | 401 kts | 50° |
| 2026-05-04 09:35 | -37.19504 | 145.34283 | 21940 ft | 405 kts | 50° |
| 2026-05-04 09:35 | -37.17860 | 145.37164 | 22518 ft | 408 kts | 50° |
| 2026-05-04 09:35 | -37.16217 | 145.40038 | 23083 ft | 411 kts | 50° |
| 2026-05-04 09:35 | -37.14538 | 145.42970 | 23623 ft | 414 kts | 50° |
| 2026-05-04 09:37 | -37.02439 | 145.64008 | 26569 ft | 436 kts | 47° |
| 2026-05-04 09:37 | -37.00651 | 145.67109 | 26964 ft | 439 kts | 46° |
| 2026-05-04 09:38 | -36.98855 | 145.70220 | 27359 ft | 442 kts | 46° |
| 2026-05-04 09:38 | -36.97067 | 145.73314 | 27738 ft | 445 kts | 46° |
| 2026-05-04 09:38 | -36.95244 | 145.76467 | 28114 ft | 447 kts | 45° |
| 2026-05-04 09:38 | -36.93410 | 145.79635 | 28490 ft | 450 kts | 45° |
| 2026-05-04 09:39 | -36.91567 | 145.82816 | 28844 ft | 453 kts | 44° |
| 2026-05-04 09:39 | -36.89726 | 145.85990 | 29226 ft | 455 kts | 44° |
| 2026-05-04 09:39 | -36.87849 | 145.89226 | 29602 ft | 457 kts | 44° |
| 2026-05-04 09:39 | -36.85999 | 145.92411 | 30020 ft | 458 kts | 43° |
| 2026-05-04 09:40 | -36.84128 | 145.95635 | 30453 ft | 456 kts | 44° |
| 2026-05-04 09:40 | -36.82256 | 145.98857 | 30862 ft | 455 kts | 44° |
| 2026-05-04 09:40 | -36.80412 | 146.02025 | 31164 ft | 457 kts | 44° |
| 2026-05-04 09:40 | -36.78536 | 146.05241 | 31496 ft | 457 kts | 44° |
| 2026-05-04 09:41 | -36.76659 | 146.08457 | 31884 ft | 456 kts | 44° |
| 2026-05-04 09:42 | -36.63549 | 146.30830 | 34167 ft | 457 kts | 44° |
| 2026-05-04 09:43 | -36.61690 | 146.33992 | 34423 ft | 457 kts | 44° |
| 2026-05-04 09:43 | -36.59804 | 146.37195 | 34654 ft | 458 kts | 45° |
| 2026-05-04 09:43 | -36.57912 | 146.40405 | 34903 ft | 459 kts | 45° |
| 2026-05-04 09:43 | -36.56011 | 146.43627 | 35032 ft | 462 kts | 45° |
| 2026-05-04 09:44 | -36.52193 | 146.50086 | 35018 ft | 465 kts | 45° |
| 2026-05-04 09:46 | -36.37066 | 146.75585 | 35040 ft | 460 kts | 45° |
| 2026-05-04 09:46 | -36.33249 | 146.81988 | 35033 ft | 461 kts | 45° |
| 2026-05-04 09:47 | -36.29446 | 146.88356 | 35042 ft | 461 kts | 45° |
| 2026-05-04 09:49 | -36.14142 | 147.13862 | 35049 ft | 460 kts | 44° |
| 2026-05-04 09:51 | -36.01418 | 147.34915 | 35051 ft | 456 kts | 44° |
| 2026-05-04 09:51 | -35.97613 | 147.41189 | 35058 ft | 455 kts | 44° |
| 2026-05-04 09:52 | -35.93834 | 147.47405 | 35059 ft | 454 kts | 44° |
| 2026-05-04 09:52 | -35.90035 | 147.53645 | 35060 ft | 453 kts | 44° |
| 2026-05-04 09:53 | -35.86260 | 147.59838 | 35069 ft | 453 kts | 44° |
| 2026-05-04 09:53 | -35.82477 | 147.66025 | 35072 ft | 453 kts | 43° |
| 2026-05-04 09:54 | -35.78668 | 147.72243 | 35075 ft | 453 kts | 43° |
| 2026-05-04 09:54 | -35.74878 | 147.78418 | 35088 ft | 455 kts | 43° |
| 2026-05-04 09:55 | -35.71047 | 147.84652 | 35081 ft | 456 kts | 43° |
| 2026-05-04 09:55 | -35.67209 | 147.90889 | 35088 ft | 456 kts | 43° |
| 2026-05-04 09:56 | -35.63384 | 147.97094 | 35087 ft | 457 kts | 43° |
| 2026-05-04 09:56 | -35.59543 | 148.03312 | 35080 ft | 458 kts | 43° |
| 2026-05-04 09:57 | -35.55692 | 148.09535 | 35089 ft | 459 kts | 43° |
| 2026-05-04 09:57 | -35.51808 | 148.15803 | 35082 ft | 459 kts | 43° |
| 2026-05-04 09:58 | -35.47958 | 148.22006 | 35091 ft | 459 kts | 43° |
| 2026-05-04 09:58 | -35.44080 | 148.28242 | 35092 ft | 458 kts | 43° |
| 2026-05-04 10:00 | -35.28599 | 148.53003 | 35092 ft | 458 kts | 42° |
| 2026-05-04 10:04 | -35.01957 | 148.95238 | 33521 ft | 431 kts | 41° |
| 2026-05-04 10:04 | -35.00121 | 148.98130 | 33138 ft | 428 kts | 41° |
| 2026-05-04 10:04 | -34.98322 | 149.00961 | 32756 ft | 424 kts | 41° |
| 2026-05-04 10:04 | -34.96518 | 149.03797 | 32380 ft | 420 kts | 41° |
| 2026-05-04 10:05 | -34.94731 | 149.06604 | 32020 ft | 417 kts | 41° |
| 2026-05-04 10:05 | -34.92956 | 149.09390 | 31660 ft | 413 kts | 41° |
| 2026-05-04 10:05 | -34.91196 | 149.12150 | 31311 ft | 410 kts | 41° |
| 2026-05-04 10:05 | -34.89471 | 149.14853 | 30964 ft | 407 kts | 41° |
| 2026-05-04 10:06 | -34.87738 | 149.17566 | 30608 ft | 404 kts | 41° |
| 2026-05-04 10:06 | -34.86009 | 149.20269 | 30264 ft | 401 kts | 41° |
| 2026-05-04 10:06 | -34.84296 | 149.22948 | 29870 ft | 398 kts | 41° |
| 2026-05-04 10:08 | -34.74411 | 149.38373 | 27704 ft | 375 kts | 43° |
| 2026-05-04 10:08 | -34.72979 | 149.41061 | 27400 ft | 381 kts | 51° |
| 2026-05-04 10:08 | -34.71761 | 149.43875 | 27147 ft | 378 kts | 52° |
| 2026-05-04 10:08 | -34.70555 | 149.46727 | 26894 ft | 378 kts | 52° |
| 2026-05-04 10:09 | -34.69338 | 149.49587 | 26648 ft | 381 kts | 53° |
| 2026-05-04 10:09 | -34.68128 | 149.52410 | 26387 ft | 379 kts | 52° |
| 2026-05-04 10:09 | -34.66902 | 149.55254 | 26050 ft | 376 kts | 52° |
| 2026-05-04 10:09 | -34.65686 | 149.58058 | 25706 ft | 373 kts | 52° |
| 2026-05-04 10:10 | -34.64473 | 149.60840 | 25366 ft | 371 kts | 52° |
| 2026-05-04 10:10 | -34.63268 | 149.63597 | 25017 ft | 369 kts | 52° |
| 2026-05-04 10:10 | -34.62066 | 149.66339 | 24673 ft | 367 kts | 52° |
| 2026-05-04 10:10 | -34.60882 | 149.69038 | 24335 ft | 366 kts | 52° |
| 2026-05-04 10:11 | -34.59682 | 149.71770 | 23979 ft | 366 kts | 52° |
| 2026-05-04 10:11 | -34.58479 | 149.74506 | 23615 ft | 366 kts | 52° |
| 2026-05-04 10:11 | -34.57284 | 149.77227 | 23186 ft | 364 kts | 52° |
| 2026-05-04 10:11 | -34.56096 | 149.79929 | 22832 ft | 362 kts | 53° |
| 2026-05-04 10:12 | -34.54912 | 149.82622 | 22469 ft | 359 kts | 53° |
| 2026-05-04 10:12 | -34.53751 | 149.85261 | 22120 ft | 357 kts | 53° |
| 2026-05-04 10:12 | -34.52584 | 149.87909 | 21775 ft | 354 kts | 53° |
| 2026-05-04 10:12 | -34.51426 | 149.90533 | 21429 ft | 351 kts | 53° |
| 2026-05-04 10:13 | -34.50278 | 149.93134 | 21100 ft | 348 kts | 53° |
| 2026-05-04 10:13 | -34.49144 | 149.95704 | 20882 ft | 342 kts | 53° |
| 2026-05-04 10:13 | -34.48034 | 149.98213 | 20556 ft | 340 kts | 53° |
| 2026-05-04 10:13 | -34.46914 | 150.00742 | 20239 ft | 338 kts | 54° |
| 2026-05-04 10:14 | -34.45802 | 150.03250 | 19905 ft | 336 kts | 54° |
| 2026-05-04 10:14 | -34.44705 | 150.05722 | 19584 ft | 334 kts | 54° |
| 2026-05-04 10:16 | -34.37082 | 150.22871 | 17211 ft | 325 kts | 55° |
| 2026-05-04 10:16 | -34.36010 | 150.25275 | 16881 ft | 323 kts | 55° |
| 2026-05-04 10:16 | -34.34959 | 150.27632 | 16562 ft | 321 kts | 55° |
| 2026-05-04 10:16 | -34.33898 | 150.30009 | 16241 ft | 319 kts | 55° |
| 2026-05-04 10:17 | -34.32845 | 150.32367 | 15926 ft | 317 kts | 55° |
| 2026-05-04 10:17 | -34.31806 | 150.34691 | 15603 ft | 316 kts | 55° |
| 2026-05-04 10:19 | -34.24594 | 150.50814 | 13423 ft | 306 kts | 56° |
| 2026-05-04 10:19 | -34.23596 | 150.53043 | 13103 ft | 304 kts | 56° |
| 2026-05-04 10:19 | -34.22593 | 150.55285 | 12772 ft | 302 kts | 56° |
| 2026-05-04 10:19 | -34.21594 | 150.57516 | 12455 ft | 300 kts | 56° |
| 2026-05-04 10:20 | -34.20602 | 150.59729 | 12143 ft | 298 kts | 56° |
| 2026-05-04 10:20 | -34.19619 | 150.61921 | 11832 ft | 296 kts | 56° |
| 2026-05-04 10:20 | -34.18649 | 150.64080 | 11526 ft | 294 kts | 56° |
| 2026-05-04 10:20 | -34.17668 | 150.66264 | 11210 ft | 293 kts | 56° |
| 2026-05-04 10:21 | -34.16697 | 150.68423 | 10874 ft | 291 kts | 56° |
| 2026-05-04 10:21 | -34.15746 | 150.70537 | 10609 ft | 288 kts | 56° |
| 2026-05-04 10:21 | -34.14786 | 150.72667 | 10293 ft | 288 kts | 56° |
| 2026-05-04 10:21 | -34.13829 | 150.74792 | 10106 ft | 282 kts | 56° |
| 2026-05-04 10:22 | -34.11971 | 150.78901 | 9499 ft | 280 kts | 56° |
| 2026-05-04 10:22 | -34.11044 | 150.80958 | 9229 ft | 278 kts | 56° |
| 2026-05-04 10:22 | -34.10122 | 150.83002 | 8948 ft | 276 kts | 56° |
| 2026-05-04 10:23 | -34.09215 | 150.85022 | 8738 ft | 271 kts | 56° |
| 2026-05-04 10:23 | -34.08424 | 150.86782 | 8565 ft | 273 kts | 56° |
| 2026-05-04 10:25 | -34.03265 | 151.01253 | 6910 ft | 285 kts | 108° |
| 2026-05-04 10:25 | -34.04370 | 151.03241 | 6709 ft | 287 kts | 133° |
| 2026-05-04 10:25 | -34.05781 | 151.04961 | 6457 ft | 289 kts | 133° |
| 2026-05-04 10:25 | -34.07177 | 151.06690 | 6182 ft | 289 kts | 135° |
| 2026-05-04 10:26 | -34.08858 | 151.07991 | 5898 ft | 289 kts | 164° |
| 2026-05-04 10:26 | -34.10808 | 151.08476 | 5721 ft | 284 kts | 171° |
| 2026-05-04 10:26 | -34.12748 | 151.08950 | 5462 ft | 284 kts | 169° |
| 2026-05-04 10:26 | -34.14663 | 151.09447 | 5221 ft | 283 kts | 169° |
| 2026-05-04 10:27 | -34.16588 | 151.09949 | 4980 ft | 282 kts | 169° |
| 2026-05-04 10:27 | -34.18498 | 151.10446 | 4753 ft | 279 kts | 169° |
| 2026-05-04 10:27 | -34.20377 | 151.10926 | 4502 ft | 272 kts | 169° |
| 2026-05-04 10:27 | -34.22209 | 151.11374 | 4385 ft | 263 kts | 170° |
| 2026-05-04 10:28 | -34.23957 | 151.11792 | 4321 ft | 255 kts | 170° |
| 2026-05-04 10:28 | -34.25615 | 151.12432 | 4276 ft | 249 kts | 147° |
| 2026-05-04 10:28 | -34.26807 | 151.13903 | 4286 ft | 244 kts | 114° |
| 2026-05-04 10:28 | -34.27223 | 151.15841 | 4215 ft | 238 kts | 87° |
| 2026-05-04 10:29 | -34.27217 | 151.17850 | 4016 ft | 238 kts | 83° |
| 2026-05-04 10:29 | -34.27176 | 151.19850 | 3805 ft | 236 kts | 83° |
| 2026-05-04 10:29 | -34.27052 | 151.21784 | 3585 ft | 229 kts | 70° |
| 2026-05-04 10:29 | -34.26288 | 151.23365 | 3378 ft | 212 kts | 35° |
| 2026-05-04 10:30 | -34.25071 | 151.24298 | 3203 ft | 205 kts | 24° |
| 2026-05-04 10:30 | -34.23764 | 151.24936 | 3043 ft | 203 kts | 4° |
| 2026-05-04 10:30 | -34.22392 | 151.24787 | 3017 ft | 200 kts | 349° |
| 2026-05-04 10:30 | -34.21018 | 151.24509 | 3022 ft | 198 kts | 350° |
| 2026-05-04 10:31 | -34.19690 | 151.24217 | 2993 ft | 190 kts | 349° |
| 2026-05-04 10:31 | -34.18420 | 151.23902 | 3018 ft | 183 kts | 348° |
| 2026-05-04 10:32 | -34.10626 | 151.21847 | 2760 ft | 194 kts | 347° |
| 2026-05-04 10:33 | -34.09330 | 151.21503 | 2503 ft | 187 kts | 347° |
| 2026-05-04 10:33 | -34.08092 | 151.21175 | 2272 ft | 174 kts | 348° |
| 2026-05-04 10:33 | -34.06975 | 151.20878 | 2049 ft | 159 kts | 348° |
| 2026-05-04 10:33 | -34.05949 | 151.20606 | 1855 ft | 143 kts | 349° |
| 2026-05-04 10:34 | -34.05013 | 151.20359 | 1676 ft | 133 kts | 351° |
| 2026-05-04 10:34 | -34.04129 | 151.20125 | 1509 ft | 130 kts | 350° |
| 2026-05-04 10:34 | -34.03239 | 151.19891 | 1339 ft | 131 kts | 349° |
| 2026-05-04 10:34 | -34.02334 | 151.19651 | 1179 ft | 132 kts | 349° |
| 2026-05-04 10:35 | -34.01422 | 151.19411 | 969 ft | 136 kts | 348° |
| 2026-05-04 10:35 | -34.00480 | 151.19159 | 809 ft | 140 kts | 349° |
| 2026-05-04 10:35 | -33.99525 | 151.18906 | 635 ft | 139 kts | 350° |
| 2026-05-04 10:35 | -33.98597 | 151.18660 | 491 ft | 134 kts | 351° |
| 2026-05-04 10:36 | -33.97682 | 151.18417 | 310 ft | 133 kts | 351° |
| 2026-05-04 10:36 | -33.96789 | 151.18182 | 369 ft | 131 kts | 350° |
| 2026-05-04 10:36 | -33.95859 | 151.17939 | 550 ft | 143 kts | 349° |
| 2026-05-04 10:36 | -33.94858 | 151.17668 | 771 ft | 151 kts | 348° |
| 2026-05-04 10:37 | -33.93816 | 151.17349 | 934 ft | 156 kts | 347° |
| 2026-05-04 10:37 | -33.92777 | 151.17033 | 1294 ft | 150 kts | 346° |
| 2026-05-04 10:37 | -33.92113 | 151.16755 | 1455 ft | 155 kts | 342° |
| 2026-05-04 10:37 | -33.91120 | 151.16119 | 1575 ft | 169 kts | 325° |
| 2026-05-04 10:39 | -33.90932 | 151.05565 | 2965 ft | 263 kts | 227° |
| 2026-05-04 10:39 | -33.92534 | 151.04445 | 2995 ft | 272 kts | 198° |
| 2026-05-04 10:39 | -33.94422 | 151.04183 | 3025 ft | 275 kts | 182° |
| 2026-05-04 10:40 | -33.96320 | 151.04103 | 2987 ft | 276 kts | 183° |
| 2026-05-04 10:40 | -33.98245 | 151.04021 | 3020 ft | 277 kts | 183° |
| 2026-05-04 10:40 | -34.00182 | 151.03941 | 3031 ft | 279 kts | 183° |
| 2026-05-04 10:40 | -34.02119 | 151.03867 | 3027 ft | 276 kts | 182° |
| 2026-05-04 10:41 | -34.04033 | 151.03798 | 3017 ft | 272 kts | 183° |
| 2026-05-04 10:41 | -34.05896 | 151.03734 | 3025 ft | 270 kts | 182° |
| 2026-05-04 10:41 | -34.07776 | 151.03667 | 3011 ft | 270 kts | 182° |
| 2026-05-04 10:41 | -34.09652 | 151.03597 | 2995 ft | 267 kts | 182° |
| 2026-05-04 10:42 | -34.11518 | 151.03525 | 3016 ft | 270 kts | 182° |
| 2026-05-04 10:42 | -34.13388 | 151.03593 | 2988 ft | 274 kts | 167° |
| 2026-05-04 10:42 | -34.15166 | 151.04395 | 3023 ft | 273 kts | 154° |
| 2026-05-04 10:42 | -34.16890 | 151.05376 | 3007 ft | 272 kts | 153° |
| 2026-05-04 10:43 | -34.18565 | 151.06349 | 3004 ft | 267 kts | 153° |
| 2026-05-04 10:44 | -34.29275 | 151.12644 | 2998 ft | 233 kts | 145° |
| 2026-05-04 10:45 | -34.30334 | 151.14053 | 3004 ft | 224 kts | 110° |
| 2026-05-04 10:45 | -34.30566 | 151.15831 | 3001 ft | 210 kts | 74° |
| 2026-05-04 10:45 | -34.29997 | 151.17388 | 3016 ft | 200 kts | 51° |
| 2026-05-04 10:45 | -34.29250 | 151.18828 | 3009 ft | 202 kts | 53° |
| 2026-05-04 10:46 | -34.28520 | 151.20271 | 2996 ft | 204 kts | 53° |
| 2026-05-04 10:46 | -34.27753 | 151.21786 | 3021 ft | 223 kts | 53° |
| 2026-05-04 10:46 | -34.26790 | 151.23296 | 2990 ft | 224 kts | 34° |
| 2026-05-04 10:46 | -34.25411 | 151.24081 | 3013 ft | 220 kts | 15° |
| 2026-05-04 10:47 | -34.23949 | 151.24585 | 3010 ft | 222 kts | 13° |
| 2026-05-04 10:47 | -34.22428 | 151.24836 | 3002 ft | 221 kts | 356° |
| 2026-05-04 10:47 | -34.20935 | 151.24578 | 3005 ft | 210 kts | 349° |
| 2026-05-04 10:47 | -34.19548 | 151.24220 | 2993 ft | 197 kts | 348° |
| 2026-05-04 10:49 | -34.10444 | 151.21799 | 2697 ft | 190 kts | 348° |
| 2026-05-04 10:49 | -34.09174 | 151.21462 | 2472 ft | 182 kts | 348° |
| 2026-05-04 10:50 | -34.07982 | 151.21145 | 2235 ft | 167 kts | 349° |
| 2026-05-04 10:51 | -34.01328 | 151.19456 | 1227 ft | 178 kts | 353° |
| 2026-05-04 10:52 | -34.00043 | 151.19160 | 1914 ft | 195 kts | 351° |
| 2026-05-04 10:52 | -33.98621 | 151.18842 | 2297 ft | 222 kts | 351° |
| 2026-05-04 10:52 | -33.97137 | 151.18520 | 3169 ft | 219 kts | 351° |
| 2026-05-04 10:54 | -33.88279 | 151.10568 | 4030 ft | 249 kts | 300° |
| 2026-05-04 10:54 | -33.87832 | 151.08568 | 4021 ft | 256 kts | 272° |
| 2026-05-04 10:56 | -33.98208 | 151.00620 | 4012 ft | 272 kts | 202° |
| 2026-05-04 10:56 | -33.99981 | 150.99812 | 4027 ft | 272 kts | 202° |
| 2026-05-04 10:56 | -34.01734 | 150.99009 | 4002 ft | 273 kts | 202° |
| 2026-05-04 10:57 | -34.03513 | 150.98195 | 4014 ft | 271 kts | 202° |
| 2026-05-04 10:57 | -34.05256 | 150.97398 | 4003 ft | 270 kts | 202° |
| 2026-05-04 10:57 | -34.07020 | 150.96596 | 4013 ft | 270 kts | 202° |
| 2026-05-04 10:57 | -34.08779 | 150.95792 | 4012 ft | 270 kts | 202° |
| 2026-05-04 10:58 | -34.10519 | 150.94997 | 4020 ft | 271 kts | 203° |
| 2026-05-04 10:58 | -34.12294 | 150.94187 | 4033 ft | 272 kts | 202° |
| 2026-05-04 10:58 | -34.14074 | 150.93372 | 4017 ft | 274 kts | 202° |
| 2026-05-04 10:58 | -34.15864 | 150.92551 | 4020 ft | 275 kts | 202° |
| 2026-05-04 10:59 | -34.17652 | 150.91731 | 4009 ft | 275 kts | 202° |
| 2026-05-04 10:59 | -34.19440 | 150.90913 | 4011 ft | 273 kts | 203° |
| 2026-05-04 10:59 | -34.21216 | 150.90106 | 4007 ft | 273 kts | 203° |
| 2026-05-04 10:59 | -34.23003 | 150.89372 | 3990 ft | 275 kts | 193° |
| 2026-05-04 11:00 | -34.24904 | 150.89415 | 4011 ft | 275 kts | 164° |
| 2026-05-04 11:01 | -34.27530 | 151.02723 | 4001 ft | 226 kts | 83° |
| 2026-05-04 11:02 | -34.27468 | 151.04616 | 4003 ft | 229 kts | 83° |
| 2026-05-04 11:02 | -34.27401 | 151.06554 | 4005 ft | 230 kts | 83° |
| 2026-05-04 11:05 | -34.16884 | 151.23048 | 3560 ft | 169 kts | 9° |
| 2026-05-04 11:06 | -34.15729 | 151.22926 | 3483 ft | 165 kts | 349° |
| 2026-05-04 11:06 | -34.14584 | 151.22746 | 3461 ft | 167 kts | 354° |
| 2026-05-04 11:06 | -34.13415 | 151.22536 | 3264 ft | 168 kts | 351° |
| 2026-05-04 11:06 | -34.12316 | 151.22279 | 3043 ft | 156 kts | 349° |
| 2026-05-04 11:08 | -34.05640 | 151.20526 | 1787 ft | 135 kts | 351° |
| 2026-05-04 11:10 | -33.99137 | 151.18801 | 584 ft | 135 kts | 352° |
| 2026-05-04 11:12 | -33.94483 | 151.17694 | 27 ft | 24 kts | 18° |
| 2026-05-04 11:12 | -33.94422 | 151.17718 | 24 ft | 3 kts | 18° |